sensor_id;sensor_type;location;lat;lon;timestamp;temperature;humidity
30288;DHT22;17103;48.316;11.558;2023-04-23T00:01:02;20.90;36.20
30288;DHT22;17103;48.316;11.558;2023-04-23T00:03:30;20.80;36.20
30288;DHT22;17103;48.316;11.558;2023-04-23T00:05:57;20.70;36.30
30288;DHT22;17103;48.316;11.558;2023-04-23T00:08:23;20.70;36.30
30288;DHT22;17103;48.316;11.558;2023-04-23T00:10:51;20.70;36.50
30288;DHT22;17103;48.316;11.558;2023-04-23T00:13:16;20.70;36.50
30288;DHT22;17103;48.316;11.558;2023-04-23T00:15:42;20.60;37.10
30288;DHT22;17103;48.316;11.558;2023-04-23T00:18:08;20.60;36.70
30288;DHT22;17103;48.316;11.558;2023-04-23T00:20:34;20.80;37.00
30288;DHT22;17103;48.316;11.558;2023-04-23T00:23:01;20.60;36.80
30288;DHT22;17103;48.316;11.558;2023-04-23T00:25:26;20.60;36.80
30288;DHT22;17103;48.316;11.558;2023-04-23T00:27:52;20.60;36.90
30288;DHT22;17103;48.316;11.558;2023-04-23T00:30:17;20.60;37.00
30288;DHT22;17103;48.316;11.558;2023-04-23T00:32:45;20.60;37.10
30288;DHT22;17103;48.316;11.558;2023-04-23T00:35:12;20.60;37.20
30288;DHT22;17103;48.316;11.558;2023-04-23T00:37:37;20.60;37.20
30288;DHT22;17103;48.316;11.558;2023-04-23T00:40:03;20.50;37.10
30288;DHT22;17103;48.316;11.558;2023-04-23T00:42:29;20.60;37.20
30288;DHT22;17103;48.316;11.558;2023-04-23T00:44:55;20.60;37.20
30288;DHT22;17103;48.316;11.558;2023-04-23T00:47:21;20.70;37.40
30288;DHT22;17103;48.316;11.558;2023-04-23T00:49:48;20.70;37.40
30288;DHT22;17103;48.316;11.558;2023-04-23T00:52:15;20.60;37.40
30288;DHT22;17103;48.316;11.558;2023-04-23T00:54:41;20.50;37.30
30288;DHT22;17103;48.316;11.558;2023-04-23T00:57:06;20.50;37.30
30288;DHT22;17103;48.316;11.558;2023-04-23T00:59:32;20.70;37.50
30288;DHT22;17103;48.316;11.558;2023-04-23T01:01:59;20.50;37.30
30288;DHT22;17103;48.316;11.558;2023-04-23T01:04:27;20.50;37.40
30288;DHT22;17103;48.316;11.558;2023-04-23T01:06:55;20.40;37.50
30288;DHT22;17103;48.316;11.558;2023-04-23T01:09:21;20.50;37.60
30288;DHT22;17103;48.316;11.558;2023-04-23T01:11:47;20.50;37.60
30288;DHT22;17103;48.316;11.558;2023-04-23T01:14:15;20.40;37.60
30288;DHT22;17103;48.316;11.558;2023-04-23T01:16:50;20.50;37.60
30288;DHT22;17103;48.316;11.558;2023-04-23T01:19:27;20.50;37.80
30288;DHT22;17103;48.316;11.558;2023-04-23T01:21:53;20.50;37.70
30288;DHT22;17103;48.316;11.558;2023-04-23T01:24:20;20.60;37.90
30288;DHT22;17103;48.316;11.558;2023-04-23T01:26:46;20.50;37.90
30288;DHT22;17103;48.316;11.558;2023-04-23T01:29:12;20.50;37.90
30288;DHT22;17103;48.316;11.558;2023-04-23T01:31:38;20.50;37.90
30288;DHT22;17103;48.316;11.558;2023-04-23T01:34:04;20.50;38.00
30288;DHT22;17103;48.316;11.558;2023-04-23T01:36:31;20.50;38.00
30288;DHT22;17103;48.316;11.558;2023-04-23T01:38:57;20.50;38.10
30288;DHT22;17103;48.316;11.558;2023-04-23T01:41:23;20.50;38.10
30288;DHT22;17103;48.316;11.558;2023-04-23T01:43:49;20.50;38.10
30288;DHT22;17103;48.316;11.558;2023-04-23T01:46:15;20.50;38.20
30288;DHT22;17103;48.316;11.558;2023-04-23T01:48:40;20.50;38.20
30288;DHT22;17103;48.316;11.558;2023-04-23T01:51:06;20.50;38.30
30288;DHT22;17103;48.316;11.558;2023-04-23T01:53:33;20.50;38.60
30288;DHT22;17103;48.316;11.558;2023-04-23T01:56:00;20.50;38.60
30288;DHT22;17103;48.316;11.558;2023-04-23T01:58:26;20.50;38.50
30288;DHT22;17103;48.316;11.558;2023-04-23T02:00:52;20.50;38.70
30288;DHT22;17103;48.316;11.558;2023-04-23T02:03:18;20.50;38.80
30288;DHT22;17103;48.316;11.558;2023-04-23T02:05:43;20.40;38.80
30288;DHT22;17103;48.316;11.558;2023-04-23T02:08:09;20.50;39.10
30288;DHT22;17103;48.316;11.558;2023-04-23T02:10:35;20.40;39.20
30288;DHT22;17103;48.316;11.558;2023-04-23T02:13:01;20.40;39.30
30288;DHT22;17103;48.316;11.558;2023-04-23T02:15:27;20.50;39.50
30288;DHT22;17103;48.316;11.558;2023-04-23T02:17:53;20.70;39.80
30288;DHT22;17103;48.316;11.558;2023-04-23T02:20:19;20.40;39.60
30288;DHT22;17103;48.316;11.558;2023-04-23T02:22:46;20.40;39.40
30288;DHT22;17103;48.316;11.558;2023-04-23T02:25:13;20.60;39.40
30288;DHT22;17103;48.316;11.558;2023-04-23T02:27:43;20.40;39.50
30288;DHT22;17103;48.316;11.558;2023-04-23T02:30:10;20.50;39.80
30288;DHT22;17103;48.316;11.558;2023-04-23T02:32:36;20.50;39.80
30288;DHT22;17103;48.316;11.558;2023-04-23T02:35:02;20.50;39.90
30288;DHT22;17103;48.316;11.558;2023-04-23T02:37:31;20.40;39.70
30288;DHT22;17103;48.316;11.558;2023-04-23T02:39:56;20.60;39.70
30288;DHT22;17103;48.316;11.558;2023-04-23T02:42:22;20.40;39.80
30288;DHT22;17103;48.316;11.558;2023-04-23T02:44:47;20.40;39.90
30288;DHT22;17103;48.316;11.558;2023-04-23T02:47:13;20.40;40.00
30288;DHT22;17103;48.316;11.558;2023-04-23T02:49:39;20.40;40.00
30288;DHT22;17103;48.316;11.558;2023-04-23T02:52:04;20.40;40.10
30288;DHT22;17103;48.316;11.558;2023-04-23T02:54:30;20.40;40.30
30288;DHT22;17103;48.316;11.558;2023-04-23T02:57:01;20.30;40.30
30288;DHT22;17103;48.316;11.558;2023-04-23T02:59:31;20.40;40.00
30288;DHT22;17103;48.316;11.558;2023-04-23T03:02:00;20.40;40.20
30288;DHT22;17103;48.316;11.558;2023-04-23T03:04:25;20.30;40.10
30288;DHT22;17103;48.316;11.558;2023-04-23T03:06:52;20.40;40.40
30288;DHT22;17103;48.316;11.558;2023-04-23T03:09:17;20.40;40.50
30288;DHT22;17103;48.316;11.558;2023-04-23T03:11:43;20.30;40.50
30288;DHT22;17103;48.316;11.558;2023-04-23T03:14:09;20.30;40.60
30288;DHT22;17103;48.316;11.558;2023-04-23T03:16:35;20.20;40.60
30288;DHT22;17103;48.316;11.558;2023-04-23T03:19:00;20.20;40.60
30288;DHT22;17103;48.316;11.558;2023-04-23T03:21:26;20.20;40.80
30288;DHT22;17103;48.316;11.558;2023-04-23T03:23:52;20.10;40.60
30288;DHT22;17103;48.316;11.558;2023-04-23T03:26:18;20.10;41.20
30288;DHT22;17103;48.316;11.558;2023-04-23T03:28:43;20.00;40.80
30288;DHT22;17103;48.316;11.558;2023-04-23T03:31:09;20.10;40.90
30288;DHT22;17103;48.316;11.558;2023-04-23T03:33:35;19.90;41.00
30288;DHT22;17103;48.316;11.558;2023-04-23T03:36:01;20.00;41.20
30288;DHT22;17103;48.316;11.558;2023-04-23T03:38:27;19.80;41.10
30288;DHT22;17103;48.316;11.558;2023-04-23T03:40:53;19.60;41.10
30288;DHT22;17103;48.316;11.558;2023-04-23T03:43:19;19.70;41.40
30288;DHT22;17103;48.316;11.558;2023-04-23T03:45:44;19.60;41.40
30288;DHT22;17103;48.316;11.558;2023-04-23T03:48:10;19.50;41.40
30288;DHT22;17103;48.316;11.558;2023-04-23T03:50:36;19.40;41.50
30288;DHT22;17103;48.316;11.558;2023-04-23T03:53:05;19.40;41.70
30288;DHT22;17103;48.316;11.558;2023-04-23T03:55:30;19.40;41.90
30288;DHT22;17103;48.316;11.558;2023-04-23T03:57:57;19.30;41.90
30288;DHT22;17103;48.316;11.558;2023-04-23T04:00:26;19.30;42.20
30288;DHT22;17103;48.316;11.558;2023-04-23T04:02:52;19.20;42.10
30288;DHT22;17103;48.316;11.558;2023-04-23T04:05:17;19.20;42.30
30288;DHT22;17103;48.316;11.558;2023-04-23T04:07:43;19.20;42.50
30288;DHT22;17103;48.316;11.558;2023-04-23T04:10:09;19.00;42.60
30288;DHT22;17103;48.316;11.558;2023-04-23T04:12:34;18.90;42.90
30288;DHT22;17103;48.316;11.558;2023-04-23T04:15:01;18.90;43.00
30288;DHT22;17103;48.316;11.558;2023-04-23T04:17:27;18.70;43.70
30288;DHT22;17103;48.316;11.558;2023-04-23T04:19:53;18.50;43.40
30288;DHT22;17103;48.316;11.558;2023-04-23T04:22:19;18.60;44.00
30288;DHT22;17103;48.316;11.558;2023-04-23T04:24:45;18.10;44.10
30288;DHT22;17103;48.316;11.558;2023-04-23T04:27:12;18.10;43.80
30288;DHT22;17103;48.316;11.558;2023-04-23T04:29:38;17.90;44.70
30288;DHT22;17103;48.316;11.558;2023-04-23T04:32:07;17.80;45.00
30288;DHT22;17103;48.316;11.558;2023-04-23T04:34:32;17.70;45.10
30288;DHT22;17103;48.316;11.558;2023-04-23T04:36:58;17.60;45.30
30288;DHT22;17103;48.316;11.558;2023-04-23T04:39:24;17.50;45.20
30288;DHT22;17103;48.316;11.558;2023-04-23T04:41:50;17.40;45.40
30288;DHT22;17103;48.316;11.558;2023-04-23T04:44:17;17.20;45.30
30288;DHT22;17103;48.316;11.558;2023-04-23T04:46:42;17.30;45.70
30288;DHT22;17103;48.316;11.558;2023-04-23T04:49:09;17.30;45.70
30288;DHT22;17103;48.316;11.558;2023-04-23T04:51:39;17.30;46.20
30288;DHT22;17103;48.316;11.558;2023-04-23T04:54:06;17.30;46.40
30288;DHT22;17103;48.316;11.558;2023-04-23T04:56:35;17.20;46.30
30288;DHT22;17103;48.316;11.558;2023-04-23T04:59:01;17.20;46.70
30288;DHT22;17103;48.316;11.558;2023-04-23T05:01:28;17.20;46.60
30288;DHT22;17103;48.316;11.558;2023-04-23T05:03:54;17.20;46.90
30288;DHT22;17103;48.316;11.558;2023-04-23T05:06:20;17.20;47.10
30288;DHT22;17103;48.316;11.558;2023-04-23T05:08:46;17.10;46.80
30288;DHT22;17103;48.316;11.558;2023-04-23T05:11:18;17.10;47.20
30288;DHT22;17103;48.316;11.558;2023-04-23T05:13:46;17.10;47.50
30288;DHT22;17103;48.316;11.558;2023-04-23T05:16:12;17.00;47.60
30288;DHT22;17103;48.316;11.558;2023-04-23T05:18:38;17.10;47.90
30288;DHT22;17103;48.316;11.558;2023-04-23T05:21:04;16.90;48.10
30288;DHT22;17103;48.316;11.558;2023-04-23T05:23:31;16.80;48.20
30288;DHT22;17103;48.316;11.558;2023-04-23T05:25:57;16.80;48.60
30288;DHT22;17103;48.316;11.558;2023-04-23T05:28:23;16.70;49.00
30288;DHT22;17103;48.316;11.558;2023-04-23T05:30:50;16.60;49.00
30288;DHT22;17103;48.316;11.558;2023-04-23T05:33:16;16.50;49.50
30288;DHT22;17103;48.316;11.558;2023-04-23T05:35:41;16.50;49.30
30288;DHT22;17103;48.316;11.558;2023-04-23T05:38:07;16.40;49.20
30288;DHT22;17103;48.316;11.558;2023-04-23T05:40:33;16.40;50.30
30288;DHT22;17103;48.316;11.558;2023-04-23T05:42:59;16.30;50.10
30288;DHT22;17103;48.316;11.558;2023-04-23T05:45:25;16.30;50.10
30288;DHT22;17103;48.316;11.558;2023-04-23T05:47:51;16.30;50.60
30288;DHT22;17103;48.316;11.558;2023-04-23T05:50:18;16.30;50.70
30288;DHT22;17103;48.316;11.558;2023-04-23T05:52:55;16.20;50.00
30288;DHT22;17103;48.316;11.558;2023-04-23T05:55:31;16.20;50.60
30288;DHT22;17103;48.316;11.558;2023-04-23T05:57:57;16.40;50.80
30288;DHT22;17103;48.316;11.558;2023-04-23T06:00:22;16.40;51.00
30288;DHT22;17103;48.316;11.558;2023-04-23T06:02:48;16.40;50.30
30288;DHT22;17103;48.316;11.558;2023-04-23T06:05:14;16.50;50.60
30288;DHT22;17103;48.316;11.558;2023-04-23T06:07:42;16.50;50.20
30288;DHT22;17103;48.316;11.558;2023-04-23T06:10:11;16.50;50.40
30288;DHT22;17103;48.316;11.558;2023-04-23T06:12:37;16.50;50.50
30288;DHT22;17103;48.316;11.558;2023-04-23T06:15:07;16.50;50.20
30288;DHT22;17103;48.316;11.558;2023-04-23T06:17:35;16.40;50.30
30288;DHT22;17103;48.316;11.558;2023-04-23T06:20:02;16.40;50.40
30288;DHT22;17103;48.316;11.558;2023-04-23T06:22:29;16.30;50.70
30288;DHT22;17103;48.316;11.558;2023-04-23T06:24:55;16.30;51.10
30288;DHT22;17103;48.316;11.558;2023-04-23T06:27:21;16.40;51.00
30288;DHT22;17103;48.316;11.558;2023-04-23T06:29:47;16.20;50.80
30288;DHT22;17103;48.316;11.558;2023-04-23T06:32:12;16.20;51.10
30288;DHT22;17103;48.316;11.558;2023-04-23T06:34:38;16.50;51.60
30288;DHT22;17103;48.316;11.558;2023-04-23T06:37:03;16.10;51.00
30288;DHT22;17103;48.316;11.558;2023-04-23T06:39:33;16.50;51.50
30288;DHT22;17103;48.316;11.558;2023-04-23T06:41:59;16.10;51.50
30288;DHT22;17103;48.316;11.558;2023-04-23T06:44:34;16.20;51.60
30288;DHT22;17103;48.316;11.558;2023-04-23T06:47:00;16.10;51.70
30288;DHT22;17103;48.316;11.558;2023-04-23T06:49:27;16.10;51.40
30288;DHT22;17103;48.316;11.558;2023-04-23T06:51:54;16.20;51.70
30288;DHT22;17103;48.316;11.558;2023-04-23T06:54:24;16.10;51.90
30288;DHT22;17103;48.316;11.558;2023-04-23T06:56:51;16.10;51.20
30288;DHT22;17103;48.316;11.558;2023-04-23T06:59:18;16.20;51.00
30288;DHT22;17103;48.316;11.558;2023-04-23T07:01:44;16.30;51.40
30288;DHT22;17103;48.316;11.558;2023-04-23T07:04:09;16.40;51.70
30288;DHT22;17103;48.316;11.558;2023-04-23T07:06:35;16.20;51.40
30288;DHT22;17103;48.316;11.558;2023-04-23T07:09:01;16.20;51.10
30288;DHT22;17103;48.316;11.558;2023-04-23T07:11:26;16.30;51.10
30288;DHT22;17103;48.316;11.558;2023-04-23T07:13:54;16.30;51.50
30288;DHT22;17103;48.316;11.558;2023-04-23T07:16:19;16.30;51.20
30288;DHT22;17103;48.316;11.558;2023-04-23T07:18:49;16.30;51.20
30288;DHT22;17103;48.316;11.558;2023-04-23T07:21:15;16.40;51.60
30288;DHT22;17103;48.316;11.558;2023-04-23T07:23:42;16.40;51.50
30288;DHT22;17103;48.316;11.558;2023-04-23T07:26:08;16.40;51.60
30288;DHT22;17103;48.316;11.558;2023-04-23T07:28:34;16.40;51.80
30288;DHT22;17103;48.316;11.558;2023-04-23T07:31:01;16.30;51.70
30288;DHT22;17103;48.316;11.558;2023-04-23T07:33:27;16.50;51.60
30288;DHT22;17103;48.316;11.558;2023-04-23T07:35:53;16.50;51.50
30288;DHT22;17103;48.316;11.558;2023-04-23T07:38:21;16.50;51.60
30288;DHT22;17103;48.316;11.558;2023-04-23T07:40:47;16.50;51.50
30288;DHT22;17103;48.316;11.558;2023-04-23T07:43:14;16.60;51.70
30288;DHT22;17103;48.316;11.558;2023-04-23T07:45:41;16.60;51.30
30288;DHT22;17103;48.316;11.558;2023-04-23T07:48:07;16.60;50.90
30288;DHT22;17103;48.316;11.558;2023-04-23T07:50:33;16.60;51.00
30288;DHT22;17103;48.316;11.558;2023-04-23T07:53:02;16.60;51.30
30288;DHT22;17103;48.316;11.558;2023-04-23T07:55:33;16.60;50.30
30288;DHT22;17103;48.316;11.558;2023-04-23T07:58:22;16.60;51.30
30288;DHT22;17103;48.316;11.558;2023-04-23T08:00:48;16.60;51.60
30288;DHT22;17103;48.316;11.558;2023-04-23T08:03:14;16.60;51.30
30288;DHT22;17103;48.316;11.558;2023-04-23T08:05:40;16.60;51.20
30288;DHT22;17103;48.316;11.558;2023-04-23T08:08:07;16.50;51.50
30288;DHT22;17103;48.316;11.558;2023-04-23T08:10:33;16.60;51.60
30288;DHT22;17103;48.316;11.558;2023-04-23T08:12:59;16.60;52.30
30288;DHT22;17103;48.316;11.558;2023-04-23T08:15:25;16.90;51.30
30288;DHT22;17103;48.316;11.558;2023-04-23T08:17:51;16.60;51.40
30288;DHT22;17103;48.316;11.558;2023-04-23T08:20:17;16.60;51.90
30288;DHT22;17103;48.316;11.558;2023-04-23T08:22:43;16.60;51.80
30288;DHT22;17103;48.316;11.558;2023-04-23T08:25:09;16.60;51.80
30288;DHT22;17103;48.316;11.558;2023-04-23T08:27:35;16.60;52.00
30288;DHT22;17103;48.316;11.558;2023-04-23T08:30:01;16.60;52.00
30288;DHT22;17103;48.316;11.558;2023-04-23T08:32:27;16.60;52.00
30288;DHT22;17103;48.316;11.558;2023-04-23T08:34:53;16.60;52.00
30288;DHT22;17103;48.316;11.558;2023-04-23T08:37:19;16.60;51.80
30288;DHT22;17103;48.316;11.558;2023-04-23T08:39:44;16.60;52.10
30288;DHT22;17103;48.316;11.558;2023-04-23T08:42:29;16.70;52.30
30288;DHT22;17103;48.316;11.558;2023-04-23T08:44:57;16.70;53.00
30288;DHT22;17103;48.316;11.558;2023-04-23T08:47:23;16.70;52.50
30288;DHT22;17103;48.316;11.558;2023-04-23T08:49:53;16.80;52.70
30288;DHT22;17103;48.316;11.558;2023-04-23T08:52:23;16.80;52.90
30288;DHT22;17103;48.316;11.558;2023-04-23T08:54:51;16.90;52.90
30288;DHT22;17103;48.316;11.558;2023-04-23T08:57:18;17.00;52.90
30288;DHT22;17103;48.316;11.558;2023-04-23T08:59:45;17.00;52.70
30288;DHT22;17103;48.316;11.558;2023-04-23T09:02:12;17.00;52.70
30288;DHT22;17103;48.316;11.558;2023-04-23T09:04:40;17.10;52.70
30288;DHT22;17103;48.316;11.558;2023-04-23T09:07:06;17.30;53.10
30288;DHT22;17103;48.316;11.558;2023-04-23T09:09:37;17.20;52.80
30288;DHT22;17103;48.316;11.558;2023-04-23T09:12:05;17.20;52.70
30288;DHT22;17103;48.316;11.558;2023-04-23T09:14:33;17.30;52.70
30288;DHT22;17103;48.316;11.558;2023-04-23T09:17:02;17.30;52.60
30288;DHT22;17103;48.316;11.558;2023-04-23T09:19:28;17.30;52.70
30288;DHT22;17103;48.316;11.558;2023-04-23T09:21:55;17.40;52.40
30288;DHT22;17103;48.316;11.558;2023-04-23T09:24:23;17.40;52.70
30288;DHT22;17103;48.316;11.558;2023-04-23T09:26:51;17.50;52.80
30288;DHT22;17103;48.316;11.558;2023-04-23T09:29:19;17.60;53.00
30288;DHT22;17103;48.316;11.558;2023-04-23T09:31:47;17.60;52.90
30288;DHT22;17103;48.316;11.558;2023-04-23T09:34:16;17.80;52.80
30288;DHT22;17103;48.316;11.558;2023-04-23T09:36:54;17.80;52.60
30288;DHT22;17103;48.316;11.558;2023-04-23T09:39:33;17.90;52.50
30288;DHT22;17103;48.316;11.558;2023-04-23T09:42:04;18.00;52.20
30288;DHT22;17103;48.316;11.558;2023-04-23T09:44:33;18.10;52.30
30288;DHT22;17103;48.316;11.558;2023-04-23T09:47:06;18.20;52.10
30288;DHT22;17103;48.316;11.558;2023-04-23T09:49:46;18.20;51.70
30288;DHT22;17103;48.316;11.558;2023-04-23T09:52:12;18.30;51.70
30288;DHT22;17103;48.316;11.558;2023-04-23T09:54:38;18.40;51.50
30288;DHT22;17103;48.316;11.558;2023-04-23T09:57:04;18.50;51.20
30288;DHT22;17103;48.316;11.558;2023-04-23T09:59:34;18.60;51.10
30288;DHT22;17103;48.316;11.558;2023-04-23T10:02:05;18.70;51.00
30288;DHT22;17103;48.316;11.558;2023-04-23T10:04:32;18.70;50.90
30288;DHT22;17103;48.316;11.558;2023-04-23T10:07:00;18.80;50.80
30288;DHT22;17103;48.316;11.558;2023-04-23T10:09:28;19.20;50.80
30288;DHT22;17103;48.316;11.558;2023-04-23T10:11:55;18.90;50.30
30288;DHT22;17103;48.316;11.558;2023-04-23T10:14:22;19.10;50.00
30288;DHT22;17103;48.316;11.558;2023-04-23T10:16:51;19.10;49.90
30288;DHT22;17103;48.316;11.558;2023-04-23T10:19:19;19.10;49.50
30288;DHT22;17103;48.316;11.558;2023-04-23T10:21:58;19.20;49.20
30288;DHT22;17103;48.316;11.558;2023-04-23T10:24:33;19.30;49.40
30288;DHT22;17103;48.316;11.558;2023-04-23T10:27:09;19.30;49.00
30288;DHT22;17103;48.316;11.558;2023-04-23T10:29:35;19.40;47.70
30288;DHT22;17103;48.316;11.558;2023-04-23T10:32:02;19.40;48.00
30288;DHT22;17103;48.316;11.558;2023-04-23T10:34:29;19.40;47.20
30288;DHT22;17103;48.316;11.558;2023-04-23T10:36:57;19.50;47.10
30288;DHT22;17103;48.316;11.558;2023-04-23T10:39:33;19.70;46.80
30288;DHT22;17103;48.316;11.558;2023-04-23T10:42:00;19.40;46.60
30288;DHT22;17103;48.316;11.558;2023-04-23T10:44:40;19.70;47.10
30288;DHT22;17103;48.316;11.558;2023-04-23T10:47:14;19.40;46.50
30288;DHT22;17103;48.316;11.558;2023-04-23T10:49:41;19.40;46.50
30288;DHT22;17103;48.316;11.558;2023-04-23T10:52:09;19.50;47.00
30288;DHT22;17103;48.316;11.558;2023-04-23T10:54:35;19.40;47.10
30288;DHT22;17103;48.316;11.558;2023-04-23T10:57:04;19.40;47.10
30288;DHT22;17103;48.316;11.558;2023-04-23T10:59:31;19.50;46.90
30288;DHT22;17103;48.316;11.558;2023-04-23T11:02:08;19.50;46.30
30288;DHT22;17103;48.316;11.558;2023-04-23T11:04:35;19.50;46.20
30288;DHT22;17103;48.316;11.558;2023-04-23T11:07:08;19.60;46.40
30288;DHT22;17103;48.316;11.558;2023-04-23T11:09:48;19.80;46.20
30288;DHT22;17103;48.316;11.558;2023-04-23T11:15:41;19.70;46.30
30288;DHT22;17103;48.316;11.558;2023-04-23T11:18:07;19.50;46.70
30288;DHT22;17103;48.316;11.558;2023-04-23T11:20:34;19.80;47.00
30288;DHT22;17103;48.316;11.558;2023-04-23T11:23:00;19.90;47.40
30288;DHT22;17103;48.316;11.558;2023-04-23T11:25:27;19.90;47.50
30288;DHT22;17103;48.316;11.558;2023-04-23T11:27:56;20.00;47.40
30288;DHT22;17103;48.316;11.558;2023-04-23T11:30:29;20.30;47.30
30288;DHT22;17103;48.316;11.558;2023-04-23T11:32:56;20.50;47.70
30288;DHT22;17103;48.316;11.558;2023-04-23T11:35:24;20.40;46.40
30288;DHT22;17103;48.316;11.558;2023-04-23T11:37:54;20.70;45.30
30288;DHT22;17103;48.316;11.558;2023-04-23T11:40:21;20.60;45.70
30288;DHT22;17103;48.316;11.558;2023-04-23T11:42:51;20.60;45.70
30288;DHT22;17103;48.316;11.558;2023-04-23T11:45:22;20.70;46.10
30288;DHT22;17103;48.316;11.558;2023-04-23T11:47:52;20.80;46.70
30288;DHT22;17103;48.316;11.558;2023-04-23T11:50:28;21.00;47.00
30288;DHT22;17103;48.316;11.558;2023-04-23T11:52:56;20.80;47.10
30288;DHT22;17103;48.316;11.558;2023-04-23T11:55:22;21.00;47.40
30288;DHT22;17103;48.316;11.558;2023-04-23T11:57:49;21.10;47.30
30288;DHT22;17103;48.316;11.558;2023-04-23T12:03:02;21.40;47.00
30288;DHT22;17103;48.316;11.558;2023-04-23T12:05:30;21.50;46.90
30288;DHT22;17103;48.316;11.558;2023-04-23T12:08:15;21.70;47.00
30288;DHT22;17103;48.316;11.558;2023-04-23T12:10:49;21.80;46.70
30288;DHT22;17103;48.316;11.558;2023-04-23T12:13:16;21.90;46.80
30288;DHT22;17103;48.316;11.558;2023-04-23T12:15:46;22.00;46.40
30288;DHT22;17103;48.316;11.558;2023-04-23T12:18:12;22.20;46.00
30288;DHT22;17103;48.316;11.558;2023-04-23T12:20:38;22.40;46.30
30288;DHT22;17103;48.316;11.558;2023-04-23T12:23:05;22.40;46.30
30288;DHT22;17103;48.316;11.558;2023-04-23T12:25:32;22.50;45.90
30288;DHT22;17103;48.316;11.558;2023-04-23T12:28:02;22.70;45.70
30288;DHT22;17103;48.316;11.558;2023-04-23T12:30:31;22.80;45.80
30288;DHT22;17103;48.316;11.558;2023-04-23T12:33:02;22.90;45.50
30288;DHT22;17103;48.316;11.558;2023-04-23T12:35:42;23.00;44.70
30288;DHT22;17103;48.316;11.558;2023-04-23T12:38:23;23.20;44.60
30288;DHT22;17103;48.316;11.558;2023-04-23T12:40:53;23.30;44.70
30288;DHT22;17103;48.316;11.558;2023-04-23T12:43:19;23.40;44.90
30288;DHT22;17103;48.316;11.558;2023-04-23T12:45:45;23.50;44.90
30288;DHT22;17103;48.316;11.558;2023-04-23T12:48:20;23.60;44.60
30288;DHT22;17103;48.316;11.558;2023-04-23T12:50:46;23.70;44.10
30288;DHT22;17103;48.316;11.558;2023-04-23T12:53:12;23.70;44.10
30288;DHT22;17103;48.316;11.558;2023-04-23T12:55:37;24.00;44.10
30288;DHT22;17103;48.316;11.558;2023-04-23T12:58:04;23.80;44.00
30288;DHT22;17103;48.316;11.558;2023-04-23T13:00:30;23.90;44.00
30288;DHT22;17103;48.316;11.558;2023-04-23T13:02:55;24.00;44.50
30288;DHT22;17103;48.316;11.558;2023-04-23T13:05:21;24.10;43.90
30288;DHT22;17103;48.316;11.558;2023-04-23T13:07:47;24.30;43.70
30288;DHT22;17103;48.316;11.558;2023-04-23T13:10:13;24.40;43.00
30288;DHT22;17103;48.316;11.558;2023-04-23T13:12:40;24.50;42.40
30288;DHT22;17103;48.316;11.558;2023-04-23T13:15:07;24.60;42.70
30288;DHT22;17103;48.316;11.558;2023-04-23T13:17:35;24.80;42.80
30288;DHT22;17103;48.316;11.558;2023-04-23T13:20:00;24.80;42.80
30288;DHT22;17103;48.316;11.558;2023-04-23T13:22:26;25.00;42.80
30288;DHT22;17103;48.316;11.558;2023-04-23T13:24:56;24.90;42.00
30288;DHT22;17103;48.316;11.558;2023-04-23T13:27:25;25.20;42.70
30288;DHT22;17103;48.316;11.558;2023-04-23T13:29:51;25.30;42.30
30288;DHT22;17103;48.316;11.558;2023-04-23T13:32:17;25.30;42.70
30288;DHT22;17103;48.316;11.558;2023-04-23T13:34:43;25.50;42.30
30288;DHT22;17103;48.316;11.558;2023-04-23T13:37:09;25.60;42.00
30288;DHT22;17103;48.316;11.558;2023-04-23T13:39:36;25.80;41.60
30288;DHT22;17103;48.316;11.558;2023-04-23T13:42:01;25.90;41.40
30288;DHT22;17103;48.316;11.558;2023-04-23T13:44:31;25.90;40.70
30288;DHT22;17103;48.316;11.558;2023-04-23T13:46:57;26.00;40.70
30288;DHT22;17103;48.316;11.558;2023-04-23T13:49:24;26.20;40.50
30288;DHT22;17103;48.316;11.558;2023-04-23T13:51:50;26.20;40.50
30288;DHT22;17103;48.316;11.558;2023-04-23T13:54:19;26.40;40.50
30288;DHT22;17103;48.316;11.558;2023-04-23T13:56:45;26.30;39.90
30288;DHT22;17103;48.316;11.558;2023-04-23T13:59:11;26.40;39.70
30288;DHT22;17103;48.316;11.558;2023-04-23T14:01:37;26.50;39.90
30288;DHT22;17103;48.316;11.558;2023-04-23T14:04:04;26.60;40.20
30288;DHT22;17103;48.316;11.558;2023-04-23T14:06:30;26.70;39.60
30288;DHT22;17103;48.316;11.558;2023-04-23T14:08:55;26.70;39.40
30288;DHT22;17103;48.316;11.558;2023-04-23T14:11:21;26.80;39.60
30288;DHT22;17103;48.316;11.558;2023-04-23T14:13:47;26.80;39.30
30288;DHT22;17103;48.316;11.558;2023-04-23T14:16:13;26.80;39.30
30288;DHT22;17103;48.316;11.558;2023-04-23T14:18:39;26.90;39.00
30288;DHT22;17103;48.316;11.558;2023-04-23T14:21:05;26.80;39.00
30288;DHT22;17103;48.316;11.558;2023-04-23T14:26:55;26.80;39.10
30288;DHT22;17103;48.316;11.558;2023-04-23T14:29:32;26.80;39.50
30288;DHT22;17103;48.316;11.558;2023-04-23T14:31:59;26.80;39.30
30288;DHT22;17103;48.316;11.558;2023-04-23T14:34:26;26.80;39.40
30288;DHT22;17103;48.316;11.558;2023-04-23T14:36:51;26.90;39.10
30288;DHT22;17103;48.316;11.558;2023-04-23T14:39:17;27.10;39.20
30288;DHT22;17103;48.316;11.558;2023-04-23T14:41:43;27.00;39.10
30288;DHT22;17103;48.316;11.558;2023-04-23T14:44:09;27.00;38.50
30288;DHT22;17103;48.316;11.558;2023-04-23T14:46:36;27.00;38.80
30288;DHT22;17103;48.316;11.558;2023-04-23T14:49:02;27.10;38.60
30288;DHT22;17103;48.316;11.558;2023-04-23T14:51:28;27.10;38.70
30288;DHT22;17103;48.316;11.558;2023-04-23T14:53:54;27.10;38.60
30288;DHT22;17103;48.316;11.558;2023-04-23T14:56:20;27.10;38.40
30288;DHT22;17103;48.316;11.558;2023-04-23T14:58:45;27.10;38.50
30288;DHT22;17103;48.316;11.558;2023-04-23T15:01:11;27.20;38.10
30288;DHT22;17103;48.316;11.558;2023-04-23T15:03:37;27.20;38.00
30288;DHT22;17103;48.316;11.558;2023-04-23T15:06:04;27.10;37.90
30288;DHT22;17103;48.316;11.558;2023-04-23T15:08:30;27.10;37.90
30288;DHT22;17103;48.316;11.558;2023-04-23T15:10:56;27.10;37.90
30288;DHT22;17103;48.316;11.558;2023-04-23T15:16:02;27.10;37.40
30288;DHT22;17103;48.316;11.558;2023-04-23T15:18:31;27.20;38.10
30288;DHT22;17103;48.316;11.558;2023-04-23T15:20:58;27.30;38.70
30288;DHT22;17103;48.316;11.558;2023-04-23T15:23:29;27.40;38.50
30288;DHT22;17103;48.316;11.558;2023-04-23T15:25:55;27.30;38.30
30288;DHT22;17103;48.316;11.558;2023-04-23T15:28:21;27.60;38.80